sensor_id;sensor_type;location;lat;lon;timestamp;P1;durP1;ratioP1;P2;durP2;ratioP2
1831;SDS011;1680;48.106;11.708;2022-09-23T00:01:41;3.20;;;3.00;;
1831;SDS011;1680;48.106;11.708;2022-09-23T00:04:07;2.90;;;2.70;;
1831;SDS011;1680;48.106;11.708;2022-09-23T00:06:34;3.17;;;2.88;;
1831;SDS011;1680;48.106;11.708;2022-09-23T00:09:01;3.23;;;3.03;;
1831;SDS011;1680;48.106;11.708;2022-09-23T00:11:28;3.20;;;2.90;;
1831;SDS011;1680;48.106;11.708;2022-09-23T00:13:57;3.40;;;3.10;;
1831;SDS011;1680;48.106;11.708;2022-09-23T00:16:25;2.80;;;2.50;;
1831;SDS011;1680;48.106;11.708;2022-09-23T00:18:53;3.50;;;3.03;;
1831;SDS011;1680;48.106;11.708;2022-09-23T00:21:21;2.90;;;2.70;;
1831;SDS011;1680;48.106;11.708;2022-09-23T00:23:49;2.90;;;2.70;;
1831;SDS011;1680;48.106;11.708;2022-09-23T00:26:16;3.33;;;3.03;;
1831;SDS011;1680;48.106;11.708;2022-09-23T00:28:43;2.83;;;2.63;;
1831;SDS011;1680;48.106;11.708;2022-09-23T00:31:14;3.43;;;3.10;;
1831;SDS011;1680;48.106;11.708;2022-09-23T00:33:41;3.47;;;3.00;;
1831;SDS011;1680;48.106;11.708;2022-09-23T00:36:08;3.00;;;2.80;;
1831;SDS011;1680;48.106;11.708;2022-09-23T00:38:36;2.80;;;2.60;;
1831;SDS011;1680;48.106;11.708;2022-09-23T00:41:03;3.27;;;2.97;;
1831;SDS011;1680;48.106;11.708;2022-09-23T00:43:37;3.30;;;3.00;;
1831;SDS011;1680;48.106;11.708;2022-09-23T00:46:05;3.30;;;3.00;;
1831;SDS011;1680;48.106;11.708;2022-09-23T00:48:33;3.23;;;2.83;;
1831;SDS011;1680;48.106;11.708;2022-09-23T00:51:00;3.05;;;2.85;;
1831;SDS011;1680;48.106;11.708;2022-09-23T00:53:27;3.83;;;3.10;;
1831;SDS011;1680;48.106;11.708;2022-09-23T00:55:54;3.28;;;3.08;;
1831;SDS011;1680;48.106;11.708;2022-09-23T00:58:23;3.35;;;2.83;;
1831;SDS011;1680;48.106;11.708;2022-09-23T01:00:52;3.30;;;3.00;;
1831;SDS011;1680;48.106;11.708;2022-09-23T01:03:19;3.38;;;3.08;;
1831;SDS011;1680;48.106;11.708;2022-09-23T01:05:48;3.43;;;3.13;;
1831;SDS011;1680;48.106;11.708;2022-09-23T01:08:15;3.50;;;3.20;;
1831;SDS011;1680;48.106;11.708;2022-09-23T01:10:51;3.00;;;2.80;;
1831;SDS011;1680;48.106;11.708;2022-09-23T01:13:26;3.08;;;2.78;;
1831;SDS011;1680;48.106;11.708;2022-09-23T01:15:59;2.90;;;2.70;;
1831;SDS011;1680;48.106;11.708;2022-09-23T01:18:33;3.22;;;3.03;;
1831;SDS011;1680;48.106;11.708;2022-09-23T01:21:14;3.30;;;3.00;;
1831;SDS011;1680;48.106;11.708;2022-09-23T01:26:34;3.78;;;3.35;;
1831;SDS011;1680;48.106;11.708;2022-09-23T01:29:11;3.03;;;2.83;;
1831;SDS011;1680;48.106;11.708;2022-09-23T01:31:45;3.25;;;3.05;;
1831;SDS011;1680;48.106;11.708;2022-09-23T01:34:14;3.75;;;3.40;;
1831;SDS011;1680;48.106;11.708;2022-09-23T01:36:45;3.13;;;2.83;;
1831;SDS011;1680;48.106;11.708;2022-09-23T01:39:14;3.65;;;3.35;;
1831;SDS011;1680;48.106;11.708;2022-09-23T01:41:48;3.83;;;3.35;;
1831;SDS011;1680;48.106;11.708;2022-09-23T01:44:18;3.10;;;2.90;;
1831;SDS011;1680;48.106;11.708;2022-09-23T01:46:49;3.67;;;2.88;;
1831;SDS011;1680;48.106;11.708;2022-09-23T01:49:18;3.13;;;2.92;;
1831;SDS011;1680;48.106;11.708;2022-09-23T01:51:46;3.33;;;3.05;;
1831;SDS011;1680;48.106;11.708;2022-09-23T01:54:17;3.05;;;2.85;;
1831;SDS011;1680;48.106;11.708;2022-09-23T01:56:46;3.53;;;3.03;;
1831;SDS011;1680;48.106;11.708;2022-09-23T01:59:17;4.35;;;3.10;;
1831;SDS011;1680;48.106;11.708;2022-09-23T02:01:47;3.35;;;2.65;;
1831;SDS011;1680;48.106;11.708;2022-09-23T02:04:19;4.00;;;3.60;;
1831;SDS011;1680;48.106;11.708;2022-09-23T02:06:49;3.50;;;3.30;;
1831;SDS011;1680;48.106;11.708;2022-09-23T02:09:17;3.60;;;3.40;;
1831;SDS011;1680;48.106;11.708;2022-09-23T02:11:50;3.63;;;3.33;;
1831;SDS011;1680;48.106;11.708;2022-09-23T02:14:20;3.75;;;3.45;;
1831;SDS011;1680;48.106;11.708;2022-09-23T02:16:49;3.45;;;3.15;;
1831;SDS011;1680;48.106;11.708;2022-09-23T02:19:19;4.68;;;2.97;;
1831;SDS011;1680;48.106;11.708;2022-09-23T02:21:48;3.45;;;3.15;;
1831;SDS011;1680;48.106;11.708;2022-09-23T02:24:17;3.60;;;3.40;;
1831;SDS011;1680;48.106;11.708;2022-09-23T02:26:48;3.70;;;3.40;;
1831;SDS011;1680;48.106;11.708;2022-09-23T02:29:18;3.60;;;3.40;;
1831;SDS011;1680;48.106;11.708;2022-09-23T02:31:47;3.72;;;3.42;;
1831;SDS011;1680;48.106;11.708;2022-09-23T02:34:23;4.13;;;3.75;;
1831;SDS011;1680;48.106;11.708;2022-09-23T02:36:55;3.13;;;2.92;;
1831;SDS011;1680;48.106;11.708;2022-09-23T02:39:29;3.40;;;3.10;;
1831;SDS011;1680;48.106;11.708;2022-09-23T02:42:09;3.80;;;3.50;;
1831;SDS011;1680;48.106;11.708;2022-09-23T02:44:38;5.07;;;3.28;;
1831;SDS011;1680;48.106;11.708;2022-09-23T02:47:05;3.53;;;3.30;;
1831;SDS011;1680;48.106;11.708;2022-09-23T02:49:33;3.67;;;3.38;;
1831;SDS011;1680;48.106;11.708;2022-09-23T02:52:01;3.63;;;3.33;;
1831;SDS011;1680;48.106;11.708;2022-09-23T02:54:29;3.80;;;3.45;;
1831;SDS011;1680;48.106;11.708;2022-09-23T02:56:56;3.75;;;3.20;;
1831;SDS011;1680;48.106;11.708;2022-09-23T02:59:26;3.65;;;3.35;;
1831;SDS011;1680;48.106;11.708;2022-09-23T03:02:01;3.50;;;3.20;;
1831;SDS011;1680;48.106;11.708;2022-09-23T03:04:37;3.17;;;2.97;;
1831;SDS011;1680;48.106;11.708;2022-09-23T03:07:09;3.80;;;3.50;;
1831;SDS011;1680;48.106;11.708;2022-09-23T03:09:40;2.92;;;2.72;;
1831;SDS011;1680;48.106;11.708;2022-09-23T03:12:11;3.30;;;3.10;;
1831;SDS011;1680;48.106;11.708;2022-09-23T03:14:40;3.28;;;3.08;;
1831;SDS011;1680;48.106;11.708;2022-09-23T03:17:09;4.03;;;3.63;;
1831;SDS011;1680;48.106;11.708;2022-09-23T03:19:41;3.92;;;3.53;;
1831;SDS011;1680;48.106;11.708;2022-09-23T03:22:09;3.35;;;3.05;;
1831;SDS011;1680;48.106;11.708;2022-09-23T03:24:37;3.72;;;3.53;;
1831;SDS011;1680;48.106;11.708;2022-09-23T03:27:06;3.65;;;3.42;;
1831;SDS011;1680;48.106;11.708;2022-09-23T03:29:35;3.72;;;3.42;;
1831;SDS011;1680;48.106;11.708;2022-09-23T03:32:02;4.20;;;3.90;;
1831;SDS011;1680;48.106;11.708;2022-09-23T03:34:32;3.92;;;3.63;;
1831;SDS011;1680;48.106;11.708;2022-09-23T03:37:03;3.70;;;3.47;;
1831;SDS011;1680;48.106;11.708;2022-09-23T03:39:34;3.40;;;3.10;;
1831;SDS011;1680;48.106;11.708;2022-09-23T03:42:02;3.58;;;3.30;;
1831;SDS011;1680;48.106;11.708;2022-09-23T03:44:32;3.63;;;3.33;;
1831;SDS011;1680;48.106;11.708;2022-09-23T03:47:02;3.40;;;3.10;;
1831;SDS011;1680;48.106;11.708;2022-09-23T03:49:29;3.20;;;2.85;;
1831;SDS011;1680;48.106;11.708;2022-09-23T03:51:58;3.40;;;3.10;;
1831;SDS011;1680;48.106;11.708;2022-09-23T03:54:28;3.63;;;3.33;;
1831;SDS011;1680;48.106;11.708;2022-09-23T03:56:55;3.75;;;3.45;;
1831;SDS011;1680;48.106;11.708;2022-09-23T03:59:23;4.30;;;3.90;;
1831;SDS011;1680;48.106;11.708;2022-09-23T04:01:50;3.70;;;3.45;;
1831;SDS011;1680;48.106;11.708;2022-09-23T04:04:17;3.85;;;3.55;;
1831;SDS011;1680;48.106;11.708;2022-09-23T04:06:44;3.40;;;3.20;;
1831;SDS011;1680;48.106;11.708;2022-09-23T04:09:12;3.80;;;3.40;;
1831;SDS011;1680;48.106;11.708;2022-09-23T04:11:40;3.50;;;3.30;;
1831;SDS011;1680;48.106;11.708;2022-09-23T04:14:07;3.70;;;3.40;;
1831;SDS011;1680;48.106;11.708;2022-09-23T04:16:37;3.60;;;3.30;;
1831;SDS011;1680;48.106;11.708;2022-09-23T04:19:04;4.20;;;3.90;;
1831;SDS011;1680;48.106;11.708;2022-09-23T04:21:30;3.70;;;3.50;;
1831;SDS011;1680;48.106;11.708;2022-09-23T04:23:57;3.90;;;3.60;;
1831;SDS011;1680;48.106;11.708;2022-09-23T04:26:24;4.45;;;3.70;;
1831;SDS011;1680;48.106;11.708;2022-09-23T04:28:52;3.65;;;3.35;;
1831;SDS011;1680;48.106;11.708;2022-09-23T04:31:20;3.55;;;3.35;;
1831;SDS011;1680;48.106;11.708;2022-09-23T04:33:47;3.25;;;3.00;;
1831;SDS011;1680;48.106;11.708;2022-09-23T04:36:14;3.60;;;3.28;;
1831;SDS011;1680;48.106;11.708;2022-09-23T04:38:42;3.80;;;3.50;;
1831;SDS011;1680;48.106;11.708;2022-09-23T04:41:09;4.00;;;3.60;;
1831;SDS011;1680;48.106;11.708;2022-09-23T04:43:36;3.80;;;3.50;;
1831;SDS011;1680;48.106;11.708;2022-09-23T04:46:05;3.70;;;3.40;;
1831;SDS011;1680;48.106;11.708;2022-09-23T04:48:34;3.92;;;3.53;;
1831;SDS011;1680;48.106;11.708;2022-09-23T04:51:01;3.67;;;3.30;;
1831;SDS011;1680;48.106;11.708;2022-09-23T04:53:28;3.58;;;3.28;;
1831;SDS011;1680;48.106;11.708;2022-09-23T04:55:59;3.50;;;3.20;;
1831;SDS011;1680;48.106;11.708;2022-09-23T04:58:25;4.25;;;3.55;;
1831;SDS011;1680;48.106;11.708;2022-09-23T05:00:53;3.50;;;3.20;;
1831;SDS011;1680;48.106;11.708;2022-09-23T05:03:22;3.65;;;3.35;;
1831;SDS011;1680;48.106;11.708;2022-09-23T05:05:51;3.50;;;3.20;;
1831;SDS011;1680;48.106;11.708;2022-09-23T05:08:19;3.45;;;3.25;;
1831;SDS011;1680;48.106;11.708;2022-09-23T05:10:46;4.70;;;3.28;;
1831;SDS011;1680;48.106;11.708;2022-09-23T05:13:13;3.70;;;3.40;;
1831;SDS011;1680;48.106;11.708;2022-09-23T05:15:40;3.90;;;3.60;;
1831;SDS011;1680;48.106;11.708;2022-09-23T05:18:06;4.53;;;4.13;;
1831;SDS011;1680;48.106;11.708;2022-09-23T05:20:34;4.70;;;4.30;;
1831;SDS011;1680;48.106;11.708;2022-09-23T05:23:01;7.00;;;4.55;;
1831;SDS011;1680;48.106;11.708;2022-09-23T05:25:27;5.28;;;4.45;;
1831;SDS011;1680;48.106;11.708;2022-09-23T05:27:54;5.65;;;4.13;;
1831;SDS011;1680;48.106;11.708;2022-09-23T05:30:21;5.03;;;4.35;;
1831;SDS011;1680;48.106;11.708;2022-09-23T05:32:47;6.15;;;4.10;;
1831;SDS011;1680;48.106;11.708;2022-09-23T05:35:14;4.10;;;3.65;;
1831;SDS011;1680;48.106;11.708;2022-09-23T05:37:42;7.80;;;3.97;;
1831;SDS011;1680;48.106;11.708;2022-09-23T05:40:09;4.05;;;3.63;;
1831;SDS011;1680;48.106;11.708;2022-09-23T05:42:35;4.68;;;3.78;;
1831;SDS011;1680;48.106;11.708;2022-09-23T05:45:02;6.40;;;3.55;;
1831;SDS011;1680;48.106;11.708;2022-09-23T05:47:30;3.95;;;3.55;;
1831;SDS011;1680;48.106;11.708;2022-09-23T05:49:57;5.28;;;3.90;;
1831;SDS011;1680;48.106;11.708;2022-09-23T05:52:23;4.18;;;3.78;;
1831;SDS011;1680;48.106;11.708;2022-09-23T05:54:52;4.07;;;3.78;;
1831;SDS011;1680;48.106;11.708;2022-09-23T05:57:20;4.60;;;4.20;;
1831;SDS011;1680;48.106;11.708;2022-09-23T05:59:47;4.00;;;3.70;;
1831;SDS011;1680;48.106;11.708;2022-09-23T06:02:14;4.28;;;3.50;;
1831;SDS011;1680;48.106;11.708;2022-09-23T06:04:40;3.85;;;3.55;;
1831;SDS011;1680;48.106;11.708;2022-09-23T06:07:08;3.95;;;3.65;;
1831;SDS011;1680;48.106;11.708;2022-09-23T06:09:34;4.20;;;3.78;;
1831;SDS011;1680;48.106;11.708;2022-09-23T06:12:02;4.07;;;3.78;;
1831;SDS011;1680;48.106;11.708;2022-09-23T06:14:30;4.05;;;3.75;;
1831;SDS011;1680;48.106;11.708;2022-09-23T06:16:57;4.35;;;3.83;;
1831;SDS011;1680;48.106;11.708;2022-09-23T06:19:23;3.75;;;3.10;;
1831;SDS011;1680;48.106;11.708;2022-09-23T06:21:50;3.58;;;3.20;;
1831;SDS011;1680;48.106;11.708;2022-09-23T06:24:16;5.95;;;3.15;;
1831;SDS011;1680;48.106;11.708;2022-09-23T06:26:43;3.90;;;3.55;;
1831;SDS011;1680;48.106;11.708;2022-09-23T06:29:11;3.22;;;2.92;;
1831;SDS011;1680;48.106;11.708;2022-09-23T06:31:37;4.57;;;3.75;;
1831;SDS011;1680;48.106;11.708;2022-09-23T06:34:07;3.88;;;3.35;;
1831;SDS011;1680;48.106;11.708;2022-09-23T06:36:34;3.43;;;3.13;;
1831;SDS011;1680;48.106;11.708;2022-09-23T06:39:00;3.80;;;3.50;;
1831;SDS011;1680;48.106;11.708;2022-09-23T06:41:27;3.50;;;3.20;;
1831;SDS011;1680;48.106;11.708;2022-09-23T06:43:54;3.30;;;3.00;;
1831;SDS011;1680;48.106;11.708;2022-09-23T06:46:22;2.90;;;2.63;;
1831;SDS011;1680;48.106;11.708;2022-09-23T06:48:48;4.87;;;3.17;;
1831;SDS011;1680;48.106;11.708;2022-09-23T06:51:15;5.03;;;3.03;;
1831;SDS011;1680;48.106;11.708;2022-09-23T06:53:44;4.53;;;3.20;;
1831;SDS011;1680;48.106;11.708;2022-09-23T06:56:11;3.50;;;3.20;;
1831;SDS011;1680;48.106;11.708;2022-09-23T06:58:38;3.20;;;3.00;;
1831;SDS011;1680;48.106;11.708;2022-09-23T07:01:05;3.17;;;2.90;;
1831;SDS011;1680;48.106;11.708;2022-09-23T07:03:34;3.43;;;3.13;;
1831;SDS011;1680;48.106;11.708;2022-09-23T07:06:01;7.57;;;3.37;;
1831;SDS011;1680;48.106;11.708;2022-09-23T07:08:28;4.30;;;3.40;;
1831;SDS011;1680;48.106;11.708;2022-09-23T07:10:55;3.70;;;2.80;;
1831;SDS011;1680;48.106;11.708;2022-09-23T07:13:22;3.70;;;3.00;;
1831;SDS011;1680;48.106;11.708;2022-09-23T07:15:49;4.00;;;3.27;;
1831;SDS011;1680;48.106;11.708;2022-09-23T07:18:16;3.53;;;3.23;;
1831;SDS011;1680;48.106;11.708;2022-09-23T07:20:44;5.30;;;2.97;;
1831;SDS011;1680;48.106;11.708;2022-09-23T07:23:10;2.67;;;2.47;;
1831;SDS011;1680;48.106;11.708;2022-09-23T07:25:37;3.03;;;2.70;;
1831;SDS011;1680;48.106;11.708;2022-09-23T07:28:03;3.53;;;2.90;;
1831;SDS011;1680;48.106;11.708;2022-09-23T07:30:31;3.33;;;3.03;;
1831;SDS011;1680;48.106;11.708;2022-09-23T07:32:58;3.50;;;2.50;;
1831;SDS011;1680;48.106;11.708;2022-09-23T07:35:24;4.37;;;3.63;;
1831;SDS011;1680;48.106;11.708;2022-09-23T07:37:53;3.30;;;3.00;;
1831;SDS011;1680;48.106;11.708;2022-09-23T07:40:20;3.53;;;2.67;;
1831;SDS011;1680;48.106;11.708;2022-09-23T07:42:47;2.77;;;2.50;;
1831;SDS011;1680;48.106;11.708;2022-09-23T07:45:14;3.10;;;2.63;;
1831;SDS011;1680;48.106;11.708;2022-09-23T07:47:40;3.37;;;3.07;;
1831;SDS011;1680;48.106;11.708;2022-09-23T07:50:08;3.63;;;2.80;;
1831;SDS011;1680;48.106;11.708;2022-09-23T07:52:36;3.50;;;3.20;;
1831;SDS011;1680;48.106;11.708;2022-09-23T07:55:05;3.00;;;2.70;;
1831;SDS011;1680;48.106;11.708;2022-09-23T07:57:32;2.90;;;2.70;;
1831;SDS011;1680;48.106;11.708;2022-09-23T07:59:58;3.47;;;3.00;;
1831;SDS011;1680;48.106;11.708;2022-09-23T08:02:26;3.30;;;2.83;;
1831;SDS011;1680;48.106;11.708;2022-09-23T08:04:53;2.77;;;2.57;;
1831;SDS011;1680;48.106;11.708;2022-09-23T08:07:20;2.90;;;2.70;;
1831;SDS011;1680;48.106;11.708;2022-09-23T08:09:46;4.63;;;2.80;;
1831;SDS011;1680;48.106;11.708;2022-09-23T08:12:15;2.93;;;2.73;;
1831;SDS011;1680;48.106;11.708;2022-09-23T08:14:42;4.30;;;3.60;;
1831;SDS011;1680;48.106;11.708;2022-09-23T08:17:09;4.33;;;2.83;;
1831;SDS011;1680;48.106;11.708;2022-09-23T08:19:36;2.20;;;2.10;;
1831;SDS011;1680;48.106;11.708;2022-09-23T08:22:03;3.43;;;2.50;;
1831;SDS011;1680;48.106;11.708;2022-09-23T08:24:29;4.10;;;2.70;;
1831;SDS011;1680;48.106;11.708;2022-09-23T08:26:56;3.30;;;3.03;;
1831;SDS011;1680;48.106;11.708;2022-09-23T08:29:24;2.70;;;2.50;;
1831;SDS011;1680;48.106;11.708;2022-09-23T08:31:51;2.70;;;2.50;;
1831;SDS011;1680;48.106;11.708;2022-09-23T08:34:19;3.20;;;3.00;;
1831;SDS011;1680;48.106;11.708;2022-09-23T08:36:46;2.80;;;2.60;;
1831;SDS011;1680;48.106;11.708;2022-09-23T08:39:13;5.40;;;3.10;;
1831;SDS011;1680;48.106;11.708;2022-09-23T08:41:42;3.10;;;2.90;;
1831;SDS011;1680;48.106;11.708;2022-09-23T08:44:13;2.93;;;2.73;;
1831;SDS011;1680;48.106;11.708;2022-09-23T08:46:43;4.93;;;2.90;;
1831;SDS011;1680;48.106;11.708;2022-09-23T08:49:13;2.93;;;2.73;;
1831;SDS011;1680;48.106;11.708;2022-09-23T08:51:43;4.17;;;3.17;;
1831;SDS011;1680;48.106;11.708;2022-09-23T08:54:11;4.63;;;3.40;;
1831;SDS011;1680;48.106;11.708;2022-09-23T08:56:38;3.47;;;2.83;;
1831;SDS011;1680;48.106;11.708;2022-09-23T08:59:08;3.40;;;3.10;;
1831;SDS011;1680;48.106;11.708;2022-09-23T09:01:38;3.00;;;2.60;;
1831;SDS011;1680;48.106;11.708;2022-09-23T09:04:13;3.70;;;2.90;;
1831;SDS011;1680;48.106;11.708;2022-09-23T09:06:40;4.10;;;3.20;;
1831;SDS011;1680;48.106;11.708;2022-09-23T09:09:09;3.17;;;2.87;;
1831;SDS011;1680;48.106;11.708;2022-09-23T09:11:39;5.60;;;2.87;;
1831;SDS011;1680;48.106;11.708;2022-09-23T09:14:10;3.90;;;3.23;;
1831;SDS011;1680;48.106;11.708;2022-09-23T09:16:46;3.50;;;2.87;;
1831;SDS011;1680;48.106;11.708;2022-09-23T09:19:20;3.47;;;3.17;;
1831;SDS011;1680;48.106;11.708;2022-09-23T09:21:51;3.20;;;2.90;;
1831;SDS011;1680;48.106;11.708;2022-09-23T09:24:20;4.17;;;2.97;;
1831;SDS011;1680;48.106;11.708;2022-09-23T09:26:49;3.43;;;3.10;;
1831;SDS011;1680;48.106;11.708;2022-09-23T09:29:17;3.20;;;2.70;;
1831;SDS011;1680;48.106;11.708;2022-09-23T09:31:45;2.97;;;2.60;;
1831;SDS011;1680;48.106;11.708;2022-09-23T09:34:16;2.60;;;2.40;;
1831;SDS011;1680;48.106;11.708;2022-09-23T09:36:48;3.83;;;2.97;;
1831;SDS011;1680;48.106;11.708;2022-09-23T09:39:16;3.13;;;2.83;;
1831;SDS011;1680;48.106;11.708;2022-09-23T09:41:44;3.80;;;3.50;;
1831;SDS011;1680;48.106;11.708;2022-09-23T09:44:16;3.73;;;3.37;;
1831;SDS011;1680;48.106;11.708;2022-09-23T09:46:50;3.70;;;3.40;;
1831;SDS011;1680;48.106;11.708;2022-09-23T09:49:23;3.13;;;2.93;;
1831;SDS011;1680;48.106;11.708;2022-09-23T09:54:34;2.70;;;2.50;;
1831;SDS011;1680;48.106;11.708;2022-09-23T09:57:01;3.67;;;3.37;;
1831;SDS011;1680;48.106;11.708;2022-09-23T09:59:29;5.40;;;3.10;;
1831;SDS011;1680;48.106;11.708;2022-09-23T10:02:10;4.60;;;3.73;;
1831;SDS011;1680;48.106;11.708;2022-09-23T10:04:39;3.70;;;3.10;;
1831;SDS011;1680;48.106;11.708;2022-09-23T10:07:06;3.37;;;3.07;;
1831;SDS011;1680;48.106;11.708;2022-09-23T10:09:35;6.13;;;3.30;;
1831;SDS011;1680;48.106;11.708;2022-09-23T10:12:03;3.10;;;2.90;;
1831;SDS011;1680;48.106;11.708;2022-09-23T10:14:35;3.60;;;3.17;;
1831;SDS011;1680;48.106;11.708;2022-09-23T10:17:02;6.00;;;3.70;;
1831;SDS011;1680;48.106;11.708;2022-09-23T10:19:30;5.30;;;3.43;;
1831;SDS011;1680;48.106;11.708;2022-09-23T10:22:02;4.47;;;3.33;;
1831;SDS011;1680;48.106;11.708;2022-09-23T10:24:31;4.50;;;4.10;;
1831;SDS011;1680;48.106;11.708;2022-09-23T10:27:00;3.67;;;3.37;;
1831;SDS011;1680;48.106;11.708;2022-09-23T10:29:29;4.07;;;3.67;;
1831;SDS011;1680;48.106;11.708;2022-09-23T10:32:11;6.00;;;3.60;;
1831;SDS011;1680;48.106;11.708;2022-09-23T10:34:40;5.37;;;3.87;;
1831;SDS011;1680;48.106;11.708;2022-09-23T10:37:12;5.60;;;3.80;;
1831;SDS011;1680;48.106;11.708;2022-09-23T10:39:39;5.53;;;3.73;;
1831;SDS011;1680;48.106;11.708;2022-09-23T10:42:25;4.00;;;3.60;;
1831;SDS011;1680;48.106;11.708;2022-09-23T10:45:16;4.37;;;3.60;;
1831;SDS011;1680;48.106;11.708;2022-09-23T10:48:02;3.50;;;3.20;;
1831;SDS011;1680;48.106;11.708;2022-09-23T10:50:34;5.80;;;3.57;;
1831;SDS011;1680;48.106;11.708;2022-09-23T10:53:06;5.47;;;3.27;;
1831;SDS011;1680;48.106;11.708;2022-09-23T10:55:38;4.23;;;3.70;;
1831;SDS011;1680;48.106;11.708;2022-09-23T10:58:13;5.00;;;3.87;;
1831;SDS011;1680;48.106;11.708;2022-09-23T11:00:42;5.33;;;3.87;;
1831;SDS011;1680;48.106;11.708;2022-09-23T11:03:19;5.00;;;3.90;;
1831;SDS011;1680;48.106;11.708;2022-09-23T11:05:50;4.17;;;3.60;;
1831;SDS011;1680;48.106;11.708;2022-09-23T11:08:29;3.67;;;3.37;;
1831;SDS011;1680;48.106;11.708;2022-09-23T11:11:01;3.90;;;3.57;;
1831;SDS011;1680;48.106;11.708;2022-09-23T11:13:37;3.87;;;3.57;;
1831;SDS011;1680;48.106;11.708;2022-09-23T11:16:09;3.40;;;2.77;;
1831;SDS011;1680;48.106;11.708;2022-09-23T11:18:50;3.77;;;3.47;;
1831;SDS011;1680;48.106;11.708;2022-09-23T11:27:02;5.00;;;4.07;;
1831;SDS011;1680;48.106;11.708;2022-09-23T11:29:36;3.70;;;3.40;;
1831;SDS011;1680;48.106;11.708;2022-09-23T11:32:14;3.27;;;2.97;;
1831;SDS011;1680;48.106;11.708;2022-09-23T11:34:50;3.40;;;2.80;;
1831;SDS011;1680;48.106;11.708;2022-09-23T11:37:22;3.83;;;3.53;;
1831;SDS011;1680;48.106;11.708;2022-09-23T11:39:50;3.10;;;2.90;;
1831;SDS011;1680;48.106;11.708;2022-09-23T11:42:20;5.23;;;3.60;;
1831;SDS011;1680;48.106;11.708;2022-09-23T11:44:48;3.33;;;3.03;;
1831;SDS011;1680;48.106;11.708;2022-09-23T11:47:17;5.67;;;3.80;;
1831;SDS011;1680;48.106;11.708;2022-09-23T11:49:48;3.50;;;3.20;;
1831;SDS011;1680;48.106;11.708;2022-09-23T11:52:15;4.13;;;3.70;;
1831;SDS011;1680;48.106;11.708;2022-09-23T11:54:45;3.63;;;3.10;;
1831;SDS011;1680;48.106;11.708;2022-09-23T11:57:21;5.77;;;2.90;;
1831;SDS011;1680;48.106;11.708;2022-09-23T11:59:52;4.00;;;3.43;;
1831;SDS011;1680;48.106;11.708;2022-09-23T12:02:21;3.70;;;2.97;;
1831;SDS011;1680;48.106;11.708;2022-09-23T12:04:55;3.57;;;3.27;;
1831;SDS011;1680;48.106;11.708;2022-09-23T12:07:26;3.83;;;3.37;;
1831;SDS011;1680;48.106;11.708;2022-09-23T12:09:55;4.50;;;4.00;;
1831;SDS011;1680;48.106;11.708;2022-09-23T12:12:25;5.00;;;3.67;;
1831;SDS011;1680;48.106;11.708;2022-09-23T12:14:57;3.97;;;3.57;;
1831;SDS011;1680;48.106;11.708;2022-09-23T12:17:30;4.20;;;3.80;;
1831;SDS011;1680;48.106;11.708;2022-09-23T12:20:05;4.00;;;3.33;;
1831;SDS011;1680;48.106;11.708;2022-09-23T12:22:38;4.47;;;3.57;;
1831;SDS011;1680;48.106;11.708;2022-09-23T12:25:10;4.70;;;3.83;;
1831;SDS011;1680;48.106;11.708;2022-09-23T12:27:40;3.40;;;3.10;;
1831;SDS011;1680;48.106;11.708;2022-09-23T12:30:13;4.37;;;3.90;;
1831;SDS011;1680;48.106;11.708;2022-09-23T12:32:42;3.60;;;3.30;;
1831;SDS011;1680;48.106;11.708;2022-09-23T12:35:17;4.03;;;3.63;;
1831;SDS011;1680;48.106;11.708;2022-09-23T12:37:46;4.17;;;3.57;;
1831;SDS011;1680;48.106;11.708;2022-09-23T12:40:15;4.47;;;3.73;;
1831;SDS011;1680;48.106;11.708;2022-09-23T12:42:43;4.10;;;3.70;;
1831;SDS011;1680;48.106;11.708;2022-09-23T12:47:58;3.97;;;3.67;;
1831;SDS011;1680;48.106;11.708;2022-09-23T12:50:45;4.00;;;3.70;;
1831;SDS011;1680;48.106;11.708;2022-09-23T12:55:57;4.20;;;3.53;;
1831;SDS011;1680;48.106;11.708;2022-09-23T13:01:05;5.60;;;3.50;;
1831;SDS011;1680;48.106;11.708;2022-09-23T13:03:33;4.20;;;3.73;;
1831;SDS011;1680;48.106;11.708;2022-09-23T13:06:17;3.70;;;3.40;;
1831;SDS011;1680;48.106;11.708;2022-09-23T13:09:01;4.60;;;4.17;;
1831;SDS011;1680;48.106;11.708;2022-09-23T13:11:28;4.50;;;4.10;;
1831;SDS011;1680;48.106;11.708;2022-09-23T13:13:56;3.43;;;3.13;;
1831;SDS011;1680;48.106;11.708;2022-09-23T13:16:25;6.30;;;3.90;;
1831;SDS011;1680;48.106;11.708;2022-09-23T13:18:56;3.87;;;3.47;;
1831;SDS011;1680;48.106;11.708;2022-09-23T13:24:17;4.00;;;3.50;;
1831;SDS011;1680;48.106;11.708;2022-09-23T13:26:44;3.80;;;3.37;;
1831;SDS011;1680;48.106;11.708;2022-09-23T13:29:12;4.00;;;3.70;;
1831;SDS011;1680;48.106;11.708;2022-09-23T13:31:41;4.03;;;3.70;;
1831;SDS011;1680;48.106;11.708;2022-09-23T13:34:10;4.60;;;3.77;;
1831;SDS011;1680;48.106;11.708;2022-09-23T13:36:42;4.37;;;3.97;;
1831;SDS011;1680;48.106;11.708;2022-09-23T13:39:12;4.67;;;4.13;;
1831;SDS011;1680;48.106;11.708;2022-09-23T13:41:39;4.80;;;3.80;;
1831;SDS011;1680;48.106;11.708;2022-09-23T13:44:08;4.07;;;3.67;;
1831;SDS011;1680;48.106;11.708;2022-09-23T13:46:39;7.40;;;5.17;;
1831;SDS011;1680;48.106;11.708;2022-09-23T13:49:13;4.30;;;3.97;;
1831;SDS011;1680;48.106;11.708;2022-09-23T13:51:44;5.23;;;4.10;;
1831;SDS011;1680;48.106;11.708;2022-09-23T13:54:23;4.43;;;4.03;;
1831;SDS011;1680;48.106;11.708;2022-09-23T13:56:52;6.00;;;4.33;;
1831;SDS011;1680;48.106;11.708;2022-09-23T13:59:21;4.77;;;4.33;;
1831;SDS011;1680;48.106;11.708;2022-09-23T14:01:48;4.13;;;3.60;;
1831;SDS011;1680;48.106;11.708;2022-09-23T14:04:22;4.10;;;3.80;;
1831;SDS011;1680;48.106;11.708;2022-09-23T14:06:49;5.13;;;4.70;;
1831;SDS011;1680;48.106;11.708;2022-09-23T14:09:16;4.77;;;3.97;;
1831;SDS011;1680;48.106;11.708;2022-09-23T14:11:42;4.67;;;4.07;;
1831;SDS011;1680;48.106;11.708;2022-09-23T14:14:10;5.30;;;4.10;;
1831;SDS011;1680;48.106;11.708;2022-09-23T14:16:38;3.90;;;3.60;;
1831;SDS011;1680;48.106;11.708;2022-09-23T14:19:05;3.97;;;3.67;;
1831;SDS011;1680;48.106;11.708;2022-09-23T14:21:34;5.20;;;3.70;;
1831;SDS011;1680;48.106;11.708;2022-09-23T14:24:15;4.70;;;3.67;;
1831;SDS011;1680;48.106;11.708;2022-09-23T14:26:42;5.90;;;4.13;;
1831;SDS011;1680;48.106;11.708;2022-09-23T14:29:11;4.20;;;3.90;;
1831;SDS011;1680;48.106;11.708;2022-09-23T14:31:39;3.80;;;3.30;;
1831;SDS011;1680;48.106;11.708;2022-09-23T14:36:48;4.60;;;4.20;;
1831;SDS011;1680;48.106;11.708;2022-09-23T14:39:32;6.83;;;3.30;;
1831;SDS011;1680;48.106;11.708;2022-09-23T14:41:59;5.70;;;4.13;;
1831;SDS011;1680;48.106;11.708;2022-09-23T14:44:25;4.67;;;4.10;;
1831;SDS011;1680;48.106;11.708;2022-09-23T14:46:53;3.83;;;3.53;;
1831;SDS011;1680;48.106;11.708;2022-09-23T14:49:21;3.50;;;3.20;;
1831;SDS011;1680;48.106;11.708;2022-09-23T14:51:49;4.90;;;3.53;;
1831;SDS011;1680;48.106;11.708;2022-09-23T14:54:20;3.80;;;3.50;;
1831;SDS011;1680;48.106;11.708;2022-09-23T14:56:48;3.93;;;3.57;;
1831;SDS011;1680;48.106;11.708;2022-09-23T14:59:22;5.20;;;3.83;;
1831;SDS011;1680;48.106;11.708;2022-09-23T15:01:49;4.50;;;4.10;;
1831;SDS011;1680;48.106;11.708;2022-09-23T15:04:17;6.33;;;4.07;;
1831;SDS011;1680;48.106;11.708;2022-09-23T15:06:56;4.37;;;3.97;;
1831;SDS011;1680;48.106;11.708;2022-09-23T15:09:25;5.10;;;4.70;;
1831;SDS011;1680;48.106;11.708;2022-09-23T15:11:55;4.70;;;4.40;;
1831;SDS011;1680;48.106;11.708;2022-09-23T15:14:24;5.07;;;4.67;;
1831;SDS011;1680;48.106;11.708;2022-09-23T15:16:51;6.50;;;3.83;;
1831;SDS011;1680;48.106;11.708;2022-09-23T15:19:19;4.13;;;3.83;;
1831;SDS011;1680;48.106;11.708;2022-09-23T15:21:49;4.43;;;4.07;;
1831;SDS011;1680;48.106;11.708;2022-09-23T15:27:05;4.70;;;4.30;;
1831;SDS011;1680;48.106;11.708;2022-09-23T15:29:35;4.67;;;4.27;;
1831;SDS011;1680;48.106;11.708;2022-09-23T15:32:02;4.80;;;4.30;;
1831;SDS011;1680;48.106;11.708;2022-09-23T15:34:33;6.33;;;5.73;;
1831;SDS011;1680;48.106;11.708;2022-09-23T15:36:59;6.40;;;4.70;;
1831;SDS011;1680;48.106;11.708;2022-09-23T15:39:26;6.63;;;5.00;;
1831;SDS011;1680;48.106;11.708;2022-09-23T15:41:53;5.67;;;5.10;;